createdAt,value
2018-06-16T00:00:19.040Z,13.30
2018-06-16T00:02:47.502Z,12.20
2018-06-16T00:05:15.941Z,11.77
2018-06-16T00:07:44.276Z,12.30
2018-06-16T00:10:12.662Z,11.77
2018-06-16T00:12:41.222Z,12.60
2018-06-16T00:15:09.614Z,12.43
2018-06-16T00:17:37.946Z,13.27
2018-06-16T00:20:06.354Z,12.90
2018-06-16T00:22:34.749Z,13.17
2018-06-16T00:25:03.121Z,12.73
2018-06-16T00:27:31.606Z,12.60
2018-06-16T00:30:00.079Z,12.90
2018-06-16T00:32:28.459Z,12.60
2018-06-16T00:34:56.807Z,12.60
2018-06-16T00:37:25.158Z,12.40
2018-06-16T00:39:53.599Z,12.23
2018-06-16T00:42:21.982Z,12.00
2018-06-16T00:44:50.491Z,13.00
2018-06-16T00:47:18.902Z,12.03
2018-06-16T00:49:47.413Z,12.97
2018-06-16T00:52:15.817Z,14.10
2018-06-16T00:54:44.208Z,14.27
2018-06-16T00:57:23.915Z,13.67
2018-06-16T00:59:52.392Z,13.13
2018-06-16T01:02:20.890Z,14.00
2018-06-16T01:04:49.336Z,12.40
2018-06-16T01:07:17.758Z,13.43
2018-06-16T01:09:46.228Z,12.20
2018-06-16T01:12:14.615Z,12.73
2018-06-16T01:14:43.112Z,11.80
2018-06-16T01:17:11.549Z,12.73
2018-06-16T01:19:39.935Z,11.80
2018-06-16T01:22:08.357Z,12.47
2018-06-16T01:24:36.771Z,11.40
2018-06-16T01:27:05.197Z,12.63
2018-06-16T01:29:33.624Z,11.73
2018-06-16T01:32:02.118Z,12.47
2018-06-16T01:34:30.745Z,11.57
2018-06-16T01:36:59.239Z,12.17
2018-06-16T01:39:28.602Z,11.13
2018-06-16T01:41:56.988Z,12.07
2018-06-16T01:44:25.401Z,10.90
2018-06-16T01:46:53.805Z,12.07
2018-06-16T01:49:22.166Z,11.60
2018-06-16T01:51:50.581Z,12.00
2018-06-16T01:54:19.002Z,12.50
2018-06-16T01:56:47.479Z,12.43
2018-06-16T01:59:15.896Z,12.40
2018-06-16T02:01:44.373Z,11.63
2018-06-16T02:04:12.858Z,11.63
2018-06-16T02:06:41.893Z,12.27
2018-06-16T02:09:11.906Z,12.17
2018-06-16T02:11:40.620Z,12.47
2018-06-16T02:14:09.778Z,12.40
2018-06-16T02:16:38.192Z,12.30
2018-06-16T02:19:06.610Z,12.40
2018-06-16T02:21:35.165Z,13.13
2018-06-16T02:24:03.678Z,12.43
2018-06-16T02:26:32.013Z,12.43
2018-06-16T02:29:00.416Z,12.60
2018-06-16T02:31:28.851Z,11.50
2018-06-16T02:33:57.312Z,11.50
2018-06-16T02:36:25.741Z,11.77
2018-06-16T02:38:54.119Z,11.20
2018-06-16T02:41:22.556Z,11.83
2018-06-16T02:43:50.877Z,11.50
2018-06-16T02:46:19.223Z,11.50
2018-06-16T02:48:47.630Z,11.70
2018-06-16T02:51:16.035Z,12.70
2018-06-16T02:53:44.923Z,11.30
2018-06-16T02:56:13.307Z,12.40
2018-06-16T02:58:41.767Z,11.73
2018-06-16T03:01:10.152Z,12.27
2018-06-16T03:03:38.537Z,12.03
2018-06-16T03:06:06.950Z,12.67
2018-06-16T03:08:35.356Z,12.37
2018-06-16T03:11:03.721Z,12.10
2018-06-16T03:13:32.953Z,13.57
2018-06-16T03:16:01.402Z,13.40
2018-06-16T03:18:29.851Z,13.30
2018-06-16T03:20:58.206Z,11.77
2018-06-16T03:23:26.590Z,12.67
2018-06-16T03:25:55.286Z,12.07
2018-06-16T03:28:23.596Z,11.10
2018-06-16T03:30:52.023Z,12.30
2018-06-16T03:33:20.463Z,12.77
2018-06-16T03:35:48.839Z,12.17
2018-06-16T03:38:17.294Z,11.70
2018-06-16T03:40:46.255Z,12.17
2018-06-16T03:43:14.641Z,12.70
2018-06-16T03:45:43.410Z,11.93
2018-06-16T03:48:11.816Z,12.07
2018-06-16T03:50:40.308Z,12.30
2018-06-16T03:53:08.690Z,11.00
2018-06-16T03:55:37.273Z,12.20
2018-06-16T03:58:05.717Z,11.97
2018-06-16T04:00:34.162Z,11.50
2018-06-16T04:03:02.600Z,11.77
2018-06-16T04:05:30.993Z,11.80
2018-06-16T04:07:59.358Z,11.20
2018-06-16T04:10:27.473Z,11.80
2018-06-16T04:12:55.882Z,12.60
2018-06-16T04:15:24.473Z,12.00
2018-06-16T04:17:53.584Z,11.93
2018-06-16T04:20:21.988Z,11.63
2018-06-16T04:22:50.438Z,12.07
2018-06-16T04:25:18.886Z,11.80
2018-06-16T04:27:47.509Z,12.20
2018-06-16T04:30:15.825Z,12.10
2018-06-16T04:32:44.204Z,11.83
2018-06-16T04:35:12.629Z,11.97
2018-06-16T04:37:41.039Z,11.50
2018-06-16T04:40:10.035Z,11.17
2018-06-16T04:42:38.404Z,11.70
2018-06-16T04:45:06.829Z,11.73
2018-06-16T04:47:35.382Z,11.50
2018-06-16T04:50:03.831Z,11.67
2018-06-16T04:52:32.242Z,11.53
2018-06-16T04:55:00.598Z,11.30
2018-06-16T04:57:29.022Z,11.60
2018-06-16T04:59:57.344Z,11.83
2018-06-16T05:02:25.651Z,12.67
2018-06-16T05:04:54.095Z,13.03
2018-06-16T05:07:22.484Z,11.77
2018-06-16T05:09:50.895Z,12.17
2018-06-16T05:12:19.292Z,12.10
2018-06-16T05:14:47.739Z,12.50
2018-06-16T05:17:16.170Z,12.20
2018-06-16T05:19:44.566Z,12.00
2018-06-16T05:22:12.973Z,13.20
2018-06-16T05:24:41.317Z,13.67
2018-06-16T05:27:09.799Z,12.67
2018-06-16T05:29:38.295Z,12.30
2018-06-16T05:32:06.730Z,12.20
2018-06-16T05:34:35.252Z,11.70
2018-06-16T05:37:03.720Z,12.13
2018-06-16T05:39:32.127Z,11.23
2018-06-16T05:42:00.578Z,11.43
2018-06-16T05:44:28.987Z,11.80
2018-06-16T05:46:57.346Z,11.37
2018-06-16T05:49:25.730Z,10.67
2018-06-16T05:51:54.200Z,10.50
2018-06-16T05:54:22.602Z,10.73
2018-06-16T05:56:51.044Z,11.40
2018-06-16T05:59:19.429Z,11.60
2018-06-16T06:01:47.802Z,12.57
2018-06-16T06:04:16.169Z,11.97
2018-06-16T06:06:44.525Z,11.50
2018-06-16T06:09:12.945Z,12.13
2018-06-16T06:11:41.366Z,12.27
2018-06-16T06:14:10.318Z,12.83
2018-06-16T06:16:39.412Z,11.67
2018-06-16T06:19:07.850Z,12.60
2018-06-16T06:21:36.193Z,11.83
2018-06-16T06:24:04.621Z,12.27
2018-06-16T06:26:33.045Z,12.03
2018-06-16T06:29:01.376Z,13.33
2018-06-16T06:31:30.672Z,11.63
2018-06-16T06:33:59.032Z,12.77
2018-06-16T06:36:27.503Z,12.07
2018-06-16T06:38:55.880Z,11.20
2018-06-16T06:41:24.326Z,12.77
2018-06-16T06:43:52.720Z,12.53
2018-06-16T06:46:21.088Z,12.07
2018-06-16T06:48:49.455Z,12.93
2018-06-16T06:51:17.794Z,11.70
2018-06-16T06:53:46.258Z,12.40
2018-06-16T06:56:14.557Z,12.00
2018-06-16T06:58:42.923Z,11.80
2018-06-16T07:01:11.392Z,11.40
2018-06-16T07:03:39.808Z,11.13
2018-06-16T07:06:08.246Z,11.30
2018-06-16T07:08:36.670Z,11.50
2018-06-16T07:11:05.090Z,11.63
2018-06-16T07:13:33.536Z,12.27
2018-06-16T07:16:01.919Z,12.20
2018-06-16T07:18:30.341Z,12.40
2018-06-16T07:20:58.718Z,11.50
2018-06-16T07:23:27.071Z,11.33
2018-06-16T07:25:55.434Z,11.17
2018-06-16T07:28:23.858Z,12.93
2018-06-16T07:30:52.204Z,12.40
2018-06-16T07:33:20.592Z,12.60
2018-06-16T07:35:48.917Z,12.03
2018-06-16T07:38:18.198Z,12.60
2018-06-16T07:40:46.624Z,13.17
2018-06-16T07:43:14.996Z,12.67
2018-06-16T07:45:43.470Z,12.93
2018-06-16T07:48:11.908Z,11.80
2018-06-16T07:50:40.308Z,12.70
2018-06-16T07:53:08.629Z,13.17
2018-06-16T07:55:37.023Z,13.47
2018-06-16T07:58:05.602Z,13.43
2018-06-16T08:00:33.930Z,14.20
2018-06-16T08:03:02.348Z,14.67
2018-06-16T08:05:30.765Z,14.40
2018-06-16T08:07:59.138Z,13.83
2018-06-16T08:10:27.470Z,14.77
2018-06-16T08:12:55.816Z,13.57
2018-06-16T08:15:24.219Z,14.63
2018-06-16T08:17:52.735Z,13.90
2018-06-16T08:20:21.109Z,13.63
2018-06-16T08:22:49.501Z,15.00
2018-06-16T08:25:18.452Z,14.97
2018-06-16T08:27:46.903Z,13.67
2018-06-16T08:30:15.300Z,13.40
2018-06-16T08:32:43.742Z,14.27
2018-06-16T08:35:12.224Z,13.70
2018-06-16T08:37:40.570Z,14.60
2018-06-16T08:40:08.975Z,14.30
2018-06-16T08:42:37.404Z,14.10
2018-06-16T08:45:05.818Z,13.93
2018-06-16T08:47:34.191Z,13.40
2018-06-16T08:50:02.627Z,12.93
2018-06-16T08:52:31.067Z,13.70
2018-06-16T08:54:59.456Z,12.83
2018-06-16T08:57:27.813Z,12.23
2018-06-16T08:59:56.230Z,12.07
2018-06-16T09:02:24.741Z,11.67
2018-06-16T09:04:53.156Z,11.87
2018-06-16T09:07:21.559Z,11.67
2018-06-16T09:09:50.021Z,11.90
2018-06-16T09:12:18.406Z,11.87
2018-06-16T09:14:46.836Z,12.40
2018-06-16T09:17:15.228Z,12.83
2018-06-16T09:19:43.574Z,12.77
2018-06-16T09:22:12.002Z,13.40
2018-06-16T09:24:40.478Z,12.70
2018-06-16T09:27:08.962Z,12.70
2018-06-16T09:29:37.365Z,11.93
2018-06-16T09:32:05.812Z,13.00
2018-06-16T09:34:34.259Z,12.63
2018-06-16T09:37:02.645Z,12.50
2018-06-16T09:39:31.073Z,12.87
2018-06-16T09:41:59.583Z,13.00
2018-06-16T09:44:27.908Z,12.30
2018-06-16T09:46:56.292Z,11.27
2018-06-16T09:49:24.687Z,10.23
2018-06-16T09:51:53.158Z,10.23
2018-06-16T09:54:21.503Z,9.30
2018-06-16T09:56:49.939Z,9.70
2018-06-16T09:59:19.027Z,9.97
2018-06-16T10:01:47.379Z,11.10
2018-06-16T10:04:15.749Z,10.83
2018-06-16T10:06:44.128Z,9.20
2018-06-16T10:09:12.531Z,9.60
2018-06-16T10:11:41.014Z,9.10
2018-06-16T10:14:09.469Z,9.67
2018-06-16T10:16:37.815Z,9.10
2018-06-16T10:19:06.188Z,9.33
2018-06-16T10:21:34.620Z,8.63
2018-06-16T10:24:03.180Z,10.60
2018-06-16T10:26:31.625Z,10.07
2018-06-16T10:29:00.077Z,9.67
2018-06-16T10:31:28.404Z,10.27
2018-06-16T10:33:56.801Z,10.33
2018-06-16T10:36:25.240Z,9.00
2018-06-16T10:38:54.401Z,9.10
2018-06-16T10:41:22.824Z,9.60
2018-06-16T10:43:51.186Z,9.67
2018-06-16T10:46:19.628Z,9.40
2018-06-16T10:48:48.035Z,9.70
2018-06-16T10:51:16.408Z,10.40
2018-06-16T10:53:44.843Z,9.70
2018-06-16T10:56:13.272Z,9.83
2018-06-16T10:58:41.650Z,9.73
2018-06-16T11:01:10.026Z,10.00
2018-06-16T11:03:38.471Z,9.83
2018-06-16T11:06:06.897Z,9.53
2018-06-16T11:08:35.346Z,10.10
2018-06-16T11:11:03.928Z,9.30
2018-06-16T11:13:32.403Z,10.17
2018-06-16T11:16:00.780Z,9.50
2018-06-16T11:18:29.178Z,9.10
2018-06-16T11:20:57.544Z,9.60
2018-06-16T11:23:25.914Z,8.87
2018-06-16T11:25:54.450Z,8.50
2018-06-16T11:28:23.065Z,9.03
2018-06-16T11:30:51.488Z,9.00
2018-06-16T11:33:20.010Z,8.30
2018-06-16T11:35:48.436Z,8.93
2018-06-16T11:38:16.767Z,8.70
2018-06-16T11:40:45.239Z,8.20
2018-06-16T11:43:13.651Z,8.10
2018-06-16T11:45:41.985Z,7.77
2018-06-16T11:48:10.495Z,7.87
2018-06-16T11:50:38.876Z,8.00
2018-06-16T11:53:07.020Z,7.90
2018-06-16T11:55:35.369Z,7.70
2018-06-16T11:58:03.815Z,7.70
2018-06-16T12:00:32.350Z,7.17
2018-06-16T12:03:00.921Z,8.10
2018-06-16T12:05:29.265Z,8.20
2018-06-16T12:07:57.676Z,8.23
2018-06-16T12:10:26.111Z,7.63
2018-06-16T12:12:54.481Z,7.97
2018-06-16T12:15:22.954Z,8.20
2018-06-16T12:17:51.035Z,7.85
2018-06-16T12:20:19.401Z,7.50
2018-06-16T12:22:47.922Z,7.97
2018-06-16T12:25:16.357Z,8.50
2018-06-16T12:27:44.908Z,7.40
2018-06-16T12:30:13.272Z,7.83
2018-06-16T12:32:41.670Z,7.37
2018-06-16T12:35:10.077Z,7.28
2018-06-16T12:37:38.514Z,7.72
2018-06-16T12:40:06.935Z,6.80
2018-06-16T12:42:36.242Z,7.80
2018-06-16T12:45:04.521Z,8.28
2018-06-16T12:47:32.968Z,7.42
2018-06-16T12:50:01.350Z,7.05
2018-06-16T12:52:29.717Z,7.40
2018-06-16T12:54:58.199Z,7.40
2018-06-16T12:57:26.706Z,8.03
2018-06-16T12:59:55.215Z,7.90
2018-06-16T13:02:23.612Z,8.10
2018-06-16T13:04:51.956Z,7.90
2018-06-16T13:07:20.333Z,7.72
2018-06-16T13:09:48.825Z,7.25
2018-06-16T13:12:17.213Z,7.83
2018-06-16T13:14:45.702Z,7.10
2018-06-16T13:17:26.636Z,7.70
2018-06-16T13:19:55.041Z,7.37
2018-06-16T13:22:23.449Z,7.53
2018-06-16T13:24:51.783Z,8.25
2018-06-16T13:27:20.210Z,7.12
2018-06-16T13:29:48.620Z,6.70
2018-06-16T13:32:16.959Z,7.53
2018-06-16T13:34:45.346Z,8.33
2018-06-16T13:37:13.820Z,8.18
2018-06-16T13:39:42.168Z,7.72
2018-06-16T13:42:10.566Z,7.72
2018-06-16T13:44:39.004Z,7.50
2018-06-16T13:47:07.412Z,7.20
2018-06-16T13:49:35.762Z,7.35
2018-06-16T13:52:04.223Z,8.00
2018-06-16T13:54:32.637Z,7.45
2018-06-16T13:57:01.041Z,7.35
2018-06-16T13:59:29.426Z,6.83
2018-06-16T14:01:57.780Z,7.60
2018-06-16T14:04:26.163Z,8.00
2018-06-16T14:06:54.602Z,7.17
2018-06-16T14:09:26.757Z,7.22
2018-06-16T14:11:55.176Z,7.05
2018-06-16T14:14:23.507Z,7.03
2018-06-16T14:16:51.915Z,6.78
2018-06-16T14:19:20.353Z,7.37
2018-06-16T14:21:48.734Z,6.92
2018-06-16T14:24:17.143Z,7.50
2018-06-16T14:26:45.573Z,7.53
2018-06-16T14:29:13.931Z,7.37
2018-06-16T14:31:42.691Z,6.80
2018-06-16T14:34:11.093Z,7.08
2018-06-16T14:36:39.531Z,6.87
2018-06-16T14:39:08.904Z,7.55
2018-06-16T14:41:37.372Z,7.15
2018-06-16T14:44:05.949Z,7.20
2018-06-16T14:46:34.364Z,7.87
2018-06-16T14:49:02.679Z,7.42
2018-06-16T14:51:31.136Z,7.80
2018-06-16T14:53:59.500Z,7.33
2018-06-16T14:56:28.078Z,6.87
2018-06-16T14:58:56.448Z,6.72
2018-06-16T15:01:24.799Z,7.20
2018-06-16T15:03:53.398Z,7.65
2018-06-16T15:06:21.823Z,8.03
2018-06-16T15:08:50.254Z,7.72
2018-06-16T15:11:18.652Z,7.92
2018-06-16T15:13:47.263Z,7.75
2018-06-16T15:16:15.601Z,7.17
2018-06-16T15:18:43.999Z,7.72
2018-06-16T15:21:12.345Z,7.40
2018-06-16T15:23:40.725Z,6.92
2018-06-16T15:26:09.167Z,7.08
2018-06-16T15:28:37.733Z,6.53
2018-06-16T15:31:06.109Z,7.97
2018-06-16T15:33:34.472Z,7.05
2018-06-16T15:36:03.012Z,6.42
2018-06-16T15:38:31.516Z,7.37
2018-06-16T15:40:59.953Z,6.35
2018-06-16T15:43:28.373Z,7.10
2018-06-16T15:45:57.492Z,6.92
2018-06-16T15:48:25.941Z,6.97
2018-06-16T15:50:54.309Z,6.83
2018-06-16T15:53:22.700Z,7.00
2018-06-16T15:55:51.196Z,7.37
2018-06-16T15:58:19.594Z,7.25
2018-06-16T16:00:48.019Z,7.40
2018-06-16T16:03:16.375Z,7.75
2018-06-16T16:05:44.845Z,7.53
2018-06-16T16:08:13.263Z,7.80
2018-06-16T16:10:41.715Z,7.40
2018-06-16T16:13:10.142Z,7.87
2018-06-16T16:15:38.508Z,7.73
2018-06-16T16:18:06.970Z,8.07
2018-06-16T16:20:35.433Z,7.97
2018-06-16T16:23:03.811Z,8.27
2018-06-16T16:25:32.514Z,9.47
2018-06-16T16:28:00.924Z,8.80
2018-06-16T16:30:29.260Z,8.20
2018-06-16T16:32:57.700Z,8.13
2018-06-16T16:35:26.113Z,8.80
2018-06-16T16:37:54.585Z,8.57
2018-06-16T16:40:23.134Z,7.57
2018-06-16T16:42:51.511Z,8.47
2018-06-16T16:45:20.689Z,7.93
2018-06-16T16:47:49.090Z,8.30
2018-06-16T16:50:17.565Z,10.00
2018-06-16T16:52:46.023Z,8.97
2018-06-16T16:55:14.396Z,10.20
2018-06-16T16:57:42.778Z,9.30
2018-06-16T17:00:11.311Z,8.07
2018-06-16T17:02:39.652Z,9.43
2018-06-16T17:05:08.031Z,9.07
2018-06-16T17:07:36.360Z,8.63
2018-06-16T17:10:05.223Z,8.73
2018-06-16T17:12:33.346Z,8.60
2018-06-16T17:15:05.214Z,8.70
2018-06-16T17:17:33.538Z,9.10
2018-06-16T17:20:01.927Z,8.40
2018-06-16T17:22:30.380Z,7.77
2018-06-16T17:24:58.788Z,9.13
2018-06-16T17:27:27.127Z,8.67
2018-06-16T17:29:55.551Z,8.63
2018-06-16T17:32:24.006Z,7.80
2018-06-16T17:34:52.414Z,8.40
2018-06-16T17:37:20.777Z,8.43
2018-06-16T17:39:49.157Z,7.70
2018-06-16T17:42:17.505Z,9.80
2018-06-16T17:44:45.852Z,8.27
2018-06-16T17:47:14.237Z,8.70
2018-06-16T17:49:42.557Z,8.83
2018-06-16T17:52:10.943Z,8.07
2018-06-16T17:54:39.357Z,8.67
2018-06-16T17:57:07.768Z,9.33
2018-06-16T17:59:36.178Z,8.40
2018-06-16T18:02:04.673Z,8.47
2018-06-16T18:04:33.070Z,9.17
2018-06-16T18:07:01.524Z,8.47
2018-06-16T18:09:29.981Z,8.17
2018-06-16T18:11:58.474Z,8.40
2018-06-16T18:14:26.813Z,9.10
2018-06-16T18:16:55.182Z,8.50
2018-06-16T18:19:23.596Z,8.43
2018-06-16T18:21:52.025Z,8.70
2018-06-16T18:24:20.680Z,9.00
2018-06-16T18:26:49.048Z,8.70
2018-06-16T18:29:17.510Z,9.17
2018-06-16T18:31:45.893Z,8.60
2018-06-16T18:34:14.203Z,8.47
2018-06-16T18:36:42.601Z,8.90
2018-06-16T18:39:11.569Z,10.50
2018-06-16T18:41:40.305Z,9.53
2018-06-16T18:44:08.930Z,9.00
2018-06-16T18:46:37.387Z,9.80
2018-06-16T18:49:05.788Z,9.30
2018-06-16T18:51:34.212Z,10.40
2018-06-16T18:54:03.412Z,10.70
2018-06-16T18:56:31.845Z,10.30
2018-06-16T18:59:00.199Z,8.83
2018-06-16T19:01:28.727Z,10.20
2018-06-16T19:03:57.035Z,10.50
2018-06-16T19:06:25.379Z,10.43
2018-06-16T19:08:53.860Z,9.00
2018-06-16T19:11:22.229Z,11.47
2018-06-16T19:13:51.535Z,10.10
2018-06-16T19:16:20.113Z,11.00
2018-06-16T19:18:48.506Z,9.67
2018-06-16T19:21:16.841Z,10.30
2018-06-16T19:23:45.259Z,10.30
2018-06-16T19:26:13.756Z,10.70
2018-06-16T19:28:42.202Z,10.80
2018-06-16T19:31:10.559Z,11.43
2018-06-16T19:33:39.026Z,10.00
2018-06-16T19:36:07.455Z,10.80
2018-06-16T19:38:35.987Z,10.37
2018-06-16T19:41:04.388Z,10.80
2018-06-16T19:43:32.757Z,9.90
2018-06-16T19:46:01.097Z,11.30
2018-06-16T19:48:29.495Z,10.27
2018-06-16T19:50:57.909Z,10.93
2018-06-16T19:53:26.269Z,11.70
2018-06-16T19:55:54.546Z,10.97
2018-06-16T19:58:23.072Z,9.43
2018-06-16T20:00:51.465Z,8.87
2018-06-16T20:03:19.946Z,9.73
2018-06-16T20:05:48.375Z,10.43
2018-06-16T20:08:16.783Z,9.07
2018-06-16T20:10:45.244Z,9.93
2018-06-16T20:13:13.695Z,9.37
2018-06-16T20:15:42.109Z,9.77
2018-06-16T20:18:10.501Z,9.33
2018-06-16T20:20:38.947Z,9.80
2018-06-16T20:23:07.505Z,9.10
2018-06-16T20:25:35.894Z,9.70
2018-06-16T20:28:03.974Z,10.33
2018-06-16T20:30:32.383Z,10.20
2018-06-16T20:33:00.963Z,10.23
2018-06-16T20:35:29.354Z,9.70
2018-06-16T20:37:57.652Z,9.00
2018-06-16T20:40:26.383Z,9.30
2018-06-16T20:42:56.736Z,9.30
2018-06-16T20:45:25.123Z,8.80
2018-06-16T20:47:53.565Z,9.00
2018-06-16T20:50:22.003Z,9.50
2018-06-16T20:52:50.405Z,8.97
2018-06-16T20:55:18.780Z,9.57
2018-06-16T20:57:47.126Z,8.33
2018-06-16T21:00:15.536Z,8.37
2018-06-16T21:02:47.632Z,8.80
2018-06-16T21:05:15.962Z,8.93
2018-06-16T21:07:44.411Z,9.27
2018-06-16T21:10:12.945Z,8.57
2018-06-16T21:12:41.310Z,9.17
2018-06-16T21:15:09.985Z,10.30
2018-06-16T21:17:38.439Z,10.87
2018-06-16T21:20:06.850Z,10.00
2018-06-16T21:22:35.266Z,8.97
2018-06-16T21:25:03.620Z,9.50
2018-06-16T21:27:32.005Z,9.10
2018-06-16T21:30:00.700Z,9.63
2018-06-16T21:32:29.081Z,9.33
2018-06-16T21:34:57.492Z,9.50
2018-06-16T21:37:25.863Z,10.00
2018-06-16T21:39:54.296Z,9.60
2018-06-16T21:42:22.652Z,8.47
2018-06-16T21:44:51.028Z,8.50
2018-06-16T21:47:19.430Z,8.43
2018-06-16T21:49:47.509Z,8.67
2018-06-16T21:52:15.859Z,9.20
2018-06-16T21:54:44.320Z,9.20
2018-06-16T21:57:12.713Z,9.00
2018-06-16T21:59:41.184Z,9.50
2018-06-16T22:02:09.726Z,9.27
2018-06-16T22:04:38.084Z,9.77
2018-06-16T22:07:06.206Z,10.60
2018-06-16T22:09:34.632Z,9.90
2018-06-16T22:12:03.004Z,10.60
2018-06-16T22:14:31.130Z,10.70
2018-06-16T22:16:59.494Z,10.43
2018-06-16T22:19:27.853Z,9.90
2018-06-16T22:21:56.228Z,9.97
2018-06-16T22:24:24.631Z,9.87
2018-06-16T22:26:53.079Z,9.60
2018-06-16T22:29:21.431Z,9.80
2018-06-16T22:31:49.841Z,9.60
2018-06-16T22:34:18.025Z,10.10
2018-06-16T22:36:46.412Z,9.30
2018-06-16T22:39:14.798Z,10.23
2018-06-16T22:41:43.229Z,11.00
2018-06-16T22:44:11.652Z,11.30
2018-06-16T22:46:40.101Z,10.97
2018-06-16T22:49:08.750Z,12.57
2018-06-16T22:51:37.095Z,13.33
2018-06-16T22:54:05.527Z,14.30
2018-06-16T22:56:33.830Z,13.50
2018-06-16T22:59:02.387Z,13.00
2018-06-16T23:01:30.785Z,12.50
2018-06-16T23:03:59.265Z,12.50
2018-06-16T23:06:27.577Z,13.20
2018-06-16T23:08:55.967Z,13.50
2018-06-16T23:11:24.390Z,11.57
2018-06-16T23:13:52.568Z,11.90
2018-06-16T23:16:21.033Z,12.50
2018-06-16T23:18:49.457Z,12.73
2018-06-16T23:21:17.990Z,11.13
2018-06-16T23:23:46.556Z,11.67
2018-06-16T23:26:14.923Z,13.10
2018-06-16T23:28:43.306Z,12.40
2018-06-16T23:31:11.695Z,12.60
2018-06-16T23:33:40.114Z,13.57
2018-06-16T23:36:08.530Z,11.70
2018-06-16T23:38:36.931Z,11.90
2018-06-16T23:41:05.312Z,12.43
2018-06-16T23:43:33.659Z,12.50
2018-06-16T23:46:02.025Z,11.47
2018-06-16T23:48:30.425Z,12.83
2018-06-16T23:50:58.820Z,13.03
2018-06-16T23:53:27.253Z,12.70
2018-06-16T23:55:55.909Z,17.63
2018-06-16T23:58:24.380Z,12.77
